Time;durP1;ratioP1;P1;durP2;ratioP2;P2;SDS_P1;SDS_P2;PMS_P1;PMS_P2;Temp;Humidity;BMP_temperature;BMP_pressure;BME280_temperature;BME280_humidity;BME280_pressure;Samples;Min_cycle;Max_cycle;Signal;HPM_P1;HPM_P2
2022/12/03 00:03:02;;;;;;;67.40;28.87;;;;;;;-2.22;100.00;101931.52;5065245;56;1142986;-67
2022/12/03 00:08:08;;;;;;;66.60;25.57;;;;;;;-2.24;100.00;101930.65;5060642;56;1143046;-66
2022/12/03 00:13:14;;;;;;;57.83;28.67;;;;;;;-2.27;100.00;101924.61;5053399;56;1143014;-68
2022/12/03 00:18:19;;;;;;;58.95;26.50;;;;;;;-2.22;100.00;101928.05;5065425;56;1143306;-64
2022/12/03 00:23:25;;;;;;;61.93;28.40;;;;;;;-2.23;100.00;101921.15;5109149;56;1143057;-67
2022/12/03 00:28:31;;;;;;;58.73;26.30;;;;;;;-2.22;100.00;101925.47;5092933;56;1143226;-64
2022/12/03 00:33:36;;;;;;;51.37;23.90;;;;;;;-2.26;100.00;101911.64;5059355;56;1143035;-64
2022/12/03 00:38:42;;;;;;;53.77;24.30;;;;;;;-2.27;100.00;101907.33;5027506;57;1143029;-64
2022/12/03 00:43:48;;;;;;;54.75;24.72;;;;;;;-2.29;100.00;101909.52;5007838;57;1143064;-65
2022/12/03 00:48:53;;;;;;;60.88;24.35;;;;;;;-2.34;100.00;101911.25;5003190;57;1143034;-66
2022/12/03 00:53:59;;;;;;;47.10;21.07;;;;;;;-2.31;100.00;101915.14;5022240;57;1143440;-65
2022/12/03 00:59:05;;;;;;;53.23;23.50;;;;;;;-2.29;100.00;101912.95;5058105;56;1143122;-65
2022/12/03 01:04:11;;;;;;;58.03;26.27;;;;;;;-2.28;100.00;101907.33;5091828;56;1143075;-64
2022/12/03 01:09:17;;;;;;;60.83;26.77;;;;;;;-2.23;100.00;101912.08;5093588;56;1143138;-65
2022/12/03 01:14:23;;;;;;;53.33;24.23;;;;;;;-2.25;100.00;101916.39;5112982;56;1142948;-67
2022/12/03 01:19:30;;;;;;;51.57;21.30;;;;;;;-2.25;100.00;101910.78;5090426;56;1143103;-67
2022/12/03 01:24:35;;;;;;;49.43;23.10;;;;;;;-2.26;100.00;101895.23;5025392;56;1143088;-66
2022/12/03 01:29:41;;;;;;;50.13;22.50;;;;;;;-2.20;100.00;101904.30;5033994;57;1142963;-64
2022/12/03 01:34:50;;;;;;;51.73;23.47;;;;;;;-2.20;100.00;101905.16;4997240;57;1143055;-68
2022/12/03 01:39:56;;;;;;;49.50;22.67;;;;;;;-2.16;100.00;101902.14;5022543;57;1143321;-68
2022/12/03 01:45:03;;;;;;;51.28;23.07;;;;;;;-2.16;100.00;101900.41;5042899;57;1143332;-66
2022/12/03 01:50:22;;;;;;;48.90;22.63;;;;;;;-2.17;100.00;101901.70;5030534;57;1143076;-68
2022/12/03 01:55:28;;;;;;;47.83;21.20;;;;;;;-2.19;100.00;101896.95;5019498;57;1143043;-66
2022/12/03 02:00:34;;;;;;;49.60;20.80;;;;;;;-2.16;100.00;101895.66;5030150;57;1143267;-67
2022/12/03 02:05:39;;;;;;;46.53;21.23;;;;;;;-2.17;100.00;101890.91;5050101;56;1143368;-67
2022/12/03 02:10:45;;;;;;;38.37;17.73;;;;;;;-2.13;100.00;101892.59;5025513;56;1143246;-66
2022/12/03 02:15:51;;;;;;;52.93;22.13;;;;;;;-2.16;100.00;101884.00;5046092;56;1143170;-66
2022/12/03 02:21:18;;;;;;;40.30;17.97;;;;;;;-2.19;100.00;101880.98;5125220;56;1143089;-65
2022/12/03 02:26:25;;;;;;;49.90;19.80;;;;;;;-2.14;100.00;101879.67;5097171;56;1142995;-66
2022/12/03 02:31:31;;;;;;;44.03;21.50;;;;;;;-2.21;100.00;101870.19;5107061;56;1143183;-65
2022/12/03 02:36:40;;;;;;;47.15;21.45;;;;;;;-2.23;100.00;101870.62;5126728;55;1143131;-66
2022/12/03 02:47:10;;;;;;;51.33;22.45;;;;;;;-2.27;100.00;101877.97;5074879;56;1143171;-65
2022/12/03 02:52:16;;;;;;;55.50;24.60;;;;;;;-2.27;100.00;101872.78;5043660;57;1142961;-67
2022/12/03 02:57:21;;;;;;;49.90;22.57;;;;;;;-2.29;100.00;101883.61;5054514;57;1143090;-64
2022/12/03 03:02:27;;;;;;;59.77;23.13;;;;;;;-2.28;100.00;101885.30;5013293;57;1143138;-65
2022/12/03 03:07:34;;;;;;;49.58;20.52;;;;;;;-2.27;100.00;101879.26;5030291;57;1143148;-68
2022/12/03 03:12:40;;;;;;;47.67;20.03;;;;;;;-2.31;100.00;101882.75;5072379;56;1143028;-67
2022/12/03 03:17:46;;;;;;;50.63;22.33;;;;;;;-2.32;100.00;101877.14;5100916;56;1143010;-64
2022/12/03 03:22:52;;;;;;;47.88;20.48;;;;;;;-2.32;100.00;101881.02;5128345;56;1143239;-66
2022/12/03 03:27:58;;;;;;;53.15;25.45;;;;;;;-2.38;100.00;101866.78;5148480;56;1143093;-67
2022/12/03 03:33:04;;;;;;;57.00;24.37;;;;;;;-2.38;100.00;101866.78;5095347;56;1142989;-64
2022/12/03 03:38:11;;;;;;;53.30;23.20;;;;;;;-2.32;100.00;101870.23;5106196;55;1143049;-65
2022/12/03 03:43:17;;;;;;;62.27;23.43;;;;;;;-2.30;100.00;101870.23;4898097;57;1143052;-67
2022/12/03 03:48:24;;;;;;;55.77;23.53;;;;;;;-2.35;100.00;101864.19;5040985;56;1143071;-65
2022/12/03 03:53:31;;;;;;;59.50;24.33;;;;;;;-2.28;100.00;101868.47;5074444;57;1143133;-67
2022/12/03 03:58:37;;;;;;;49.33;21.50;;;;;;;-2.27;100.00;101871.05;5073995;56;1143274;-67
2022/12/03 04:03:43;;;;;;;59.20;24.87;;;;;;;-2.25;100.00;101870.62;5064394;56;1143037;-67
2022/12/03 04:08:50;;;;;;;59.10;25.57;;;;;;;-2.28;100.00;101872.35;4940102;57;1142926;-64
2022/12/03 04:13:55;;;;;;;59.83;24.07;;;;;;;-2.30;100.00;101862.02;5030610;56;1142930;-64
2022/12/03 04:19:01;;;;;;;61.87;24.93;;;;;;;-2.28;100.00;101851.63;5050582;56;1143133;-67
2022/12/03 04:24:09;;;;;;;44.93;19.07;;;;;;;-2.24;100.00;101854.64;5007871;56;1143418;-64
2022/12/03 04:29:16;;;;;;;64.37;23.60;;;;;;;-2.22;100.00;101857.66;4926176;56;1143018;-66
2022/12/03 04:39:46;;;;;;;74.07;29.60;;;;;;;-2.33;100.00;101853.39;5028065;57;1143207;-69
2022/12/03 04:44:51;;;;;;;86.67;31.00;;;;;;;-2.32;100.00;101855.98;5043388;57;1149991;-64
2022/12/03 04:49:58;;;;;;;93.67;34.75;;;;;;;-2.37;100.00;101846.48;5043986;57;1143104;-67
2022/12/03 04:55:04;;;;;;;87.60;33.23;;;;;;;-2.36;100.00;101846.92;5063486;57;1143140;-63
2022/12/03 05:00:10;;;;;;;79.50;34.03;;;;;;;-2.37;100.00;101840.88;4983063;57;1143033;-67
2022/12/03 05:05:16;;;;;;;78.03;31.53;;;;;;;-2.36;100.00;101831.38;5032243;57;1143226;-67
2022/12/03 05:10:22;;;;;;;77.22;28.92;;;;;;;-2.37;100.00;101821.88;5038949;57;1143118;-65
2022/12/03 05:15:27;;;;;;;78.17;30.23;;;;;;;-2.34;100.00;101821.87;5059475;57;1142974;-66
2022/12/03 05:20:43;;;;;;;71.13;30.93;;;;;;;-2.31;100.00;101817.98;5039168;57;1142937;-67
2022/12/03 05:25:49;;;;;;;81.00;32.63;;;;;;;-2.30;100.00;101810.63;5038947;57;1143021;-67
2022/12/03 05:30:54;;;;;;;89.36;33.26;;;;;;;-2.21;100.00;101820.52;5058679;57;1143170;-68
2022/12/03 05:36:01;;;;;;;75.67;30.00;;;;;;;-2.22;100.00;101811.45;4968542;57;1143162;-66
2022/12/03 05:42:52;;;;;;;92.27;36.30;;;;;;;-2.22;100.00;101811.45;4956658;57;1143352;-67
2022/12/03 05:46:14;;;;;;;71.50;30.20;;;;;;;-2.17;100.00;101809.70;4986100;57;1143016;-63
2022/12/03 05:51:20;;;;;;;66.80;28.13;;;;;;;-2.14;100.00;101807.11;5018413;57;1143029;-67
2022/12/03 05:56:26;;;;;;;72.42;28.70;;;;;;;-2.10;100.00;101810.52;5021968;56;1143217;-66
2022/12/03 06:01:31;;;;;;;77.27;28.53;;;;;;;-2.13;100.00;101810.95;5149675;56;1143245;-64
2022/12/03 06:06:37;;;;;;;63.87;26.43;;;;;;;-2.14;100.00;101809.23;5128414;56;1143234;-68
2022/12/03 06:11:43;;;;;;;83.13;32.17;;;;;;;-2.14;100.00;101809.23;5128347;56;1143245;-69
2022/12/03 06:16:49;;;;;;;86.80;34.60;;;;;;;-2.10;100.00;101817.86;5148748;56;1143131;-67
2022/12/03 06:21:55;;;;;;;83.25;34.00;;;;;;;-2.10;100.00;101823.48;5128266;55;1143196;-66
2022/12/03 06:27:01;;;;;;;85.65;31.62;;;;;;;-2.10;100.00;101823.05;5109018;56;1143037;-68
2022/12/03 06:32:07;;;;;;;56.97;20.60;;;;;;;-2.05;100.00;101817.84;5127836;56;1143059;-68
2022/12/03 06:37:12;;;;;;;72.00;28.17;;;;;;;-2.08;100.00;101794.53;5052940;56;1143122;-66
2022/12/03 06:42:18;;;;;;;68.53;30.60;;;;;;;-2.14;100.00;101798.03;5044474;56;1143123;-65
2022/12/03 06:47:24;;;;;;;74.10;29.50;;;;;;;-2.17;100.00;101798.91;5051293;56;1143086;-66
2022/12/03 06:52:31;;;;;;;69.73;27.97;;;;;;;-2.16;100.00;101805.81;5104168;56;1142997;-69
2022/12/03 06:57:37;;;;;;;84.13;33.90;;;;;;;-2.18;100.00;101797.18;5068874;56;1142910;-65
2022/12/03 07:02:43;;;;;;;82.00;33.43;;;;;;;-2.17;100.00;101802.80;5013192;56;1143040;-67
2022/12/03 07:07:50;;;;;;;86.30;35.80;;;;;;;-2.14;100.00;101802.75;4990742;56;1143268;-67
2022/12/03 07:12:56;;;;;;;80.60;34.20;;;;;;;-2.13;100.00;101805.77;4928256;56;1143141;-65
2022/12/03 07:18:02;;;;;;;77.43;33.23;;;;;;;-2.10;100.00;101803.61;5005283;56;1143037;-66
2022/12/03 07:23:07;;;;;;;77.20;33.37;;;;;;;-2.08;100.00;101795.39;5055733;56;1143040;-64
2022/12/03 07:28:13;;;;;;;72.70;32.10;;;;;;;-2.07;100.00;101790.64;5068793;56;1143253;-64
2022/12/03 07:33:19;;;;;;;79.50;34.93;;;;;;;-2.07;100.00;101791.08;5080487;56;1143082;-66
2022/12/03 07:38:24;;;;;;;81.28;32.90;;;;;;;-2.07;100.00;101786.75;5092961;56;1142971;-66
2022/12/03 07:43:30;;;;;;;74.80;32.93;;;;;;;-2.03;100.00;101788.89;5112922;56;1143204;-64
2022/12/03 07:48:36;;;;;;;76.40;33.30;;;;;;;-2.04;100.00;101798.41;5080674;56;1143261;-67
2022/12/03 07:53:43;;;;;;;82.02;33.73;;;;;;;-2.06;100.00;101793.66;5071116;56;1143029;-64
2022/12/03 07:58:48;;;;;;;80.32;34.85;;;;;;;-2.07;100.00;101789.34;5051686;56;1143044;-68
2022/12/03 08:03:54;;;;;;;74.75;32.83;;;;;;;-2.04;100.00;101791.06;5006700;56;1143104;-65
2022/12/03 08:09:00;;;;;;;79.30;33.75;;;;;;;-2.00;100.00;101788.89;4952080;57;1143225;-65
2022/12/03 08:14:16;;;;;;;72.10;31.07;;;;;;;-1.97;100.00;101787.11;4997730;57;1143124;-64
2022/12/03 08:19:21;;;;;;;72.07;29.73;;;;;;;-1.96;100.00;101787.54;4977613;58;1143362;-67
2022/12/03 08:24:28;;;;;;;58.08;26.95;;;;;;;-1.93;100.00;101779.75;4978390;57;1143167;-65
2022/12/03 08:29:33;;;;;;;67.87;28.10;;;;;;;-1.94;100.00;101775.87;4923429;57;1142965;-67
2022/12/03 08:34:44;;;;;;;53.43;25.73;;;;;;;-1.92;100.00;101781.91;4971217;57;1142980;-65
2022/12/03 08:39:53;;;;;;;55.80;25.43;;;;;;;-1.91;100.00;101783.63;5005674;57;1143066;-68
2022/12/03 08:45:39;;;;;;;65.23;28.57;;;;;;;-1.88;100.00;101788.38;5028795;56;1143119;-65
2022/12/03 08:50:46;;;;;;;64.70;28.20;;;;;;;-1.85;100.00;101794.84;5003566;57;1143198;-66
2022/12/03 08:56:14;;;;;;;63.10;29.80;;;;;;;-1.84;100.00;101795.27;5006984;57;1142909;-67
2022/12/03 09:01:32;;;;;;;62.23;27.20;;;;;;;-1.79;100.00;101793.92;5010397;57;1143167;-65
2022/12/03 09:06:38;;;;;;;65.77;28.47;;;;;;;-1.75;100.00;101792.17;4917462;58;1143105;-67
2022/12/03 09:11:45;;;;;;;62.97;28.07;;;;;;;-1.73;100.00;101790.44;4920388;58;1143083;-65
2022/12/03 09:16:58;;;;;;;55.77;26.70;;;;;;;-1.70;100.00;101787.39;4920511;58;1143108;-68
2022/12/03 09:21:59;;;;;;;65.20;28.90;;;;;;;-1.72;100.00;101787.84;4939877;57;1143434;-64
2022/12/03 09:27:05;;;;;;;56.28;25.85;;;;;;;-1.75;100.00;101782.66;4997190;56;1143098;-68
2022/12/03 09:32:11;;;;;;;54.27;25.17;;;;;;;-1.72;100.00;101783.95;4955378;57;1143147;-64
2022/12/03 09:37:17;;;;;;;60.40;28.73;;;;;;;-1.69;100.00;101769.67;4971265;57;1143055;-65
2022/12/03 09:42:23;;;;;;;69.97;29.07;;;;;;;-1.64;100.00;101767.02;4954305;57;1142986;-67
2022/12/03 09:47:30;;;;;;;59.18;28.85;;;;;;;-1.55;100.00;101761.78;4932387;56;1143192;-65
2022/12/03 09:52:36;;;;;;;56.67;25.67;;;;;;;-1.48;100.00;101761.70;5043052;56;1142977;-66
2022/12/03 09:57:41;;;;;;;62.87;29.50;;;;;;;-1.43;100.00;101753.45;5025767;56;1142979;-68
2022/12/03 10:02:48;;;;;;;66.80;30.43;;;;;;;-1.39;100.00;101751.70;4982160;56;1143171;-67
2022/12/03 10:08:00;;;;;;;64.63;30.57;;;;;;;-1.34;100.00;101750.34;4965702;57;1149196;-67
2022/12/03 10:13:10;;;;;;;69.80;33.63;;;;;;;-1.32;100.00;101748.59;4966570;57;1143144;-68
2022/12/03 10:18:23;;;;;;;83.07;44.40;;;;;;;-1.34;100.00;101732.17;5024645;55;1143185;-68
2022/12/03 10:23:31;;;;;;;56.13;23.75;;;;;;;-1.33;100.00;101736.05;5022862;56;1143020;-64
2022/12/03 10:28:40;;;;;;;68.70;31.50;;;;;;;-1.39;100.00;101727.05;5042481;56;1143042;-64
2022/12/03 10:33:46;;;;;;;73.20;31.45;;;;;;;-1.44;100.00;101719.73;5057816;56;1143022;-64
2022/12/03 10:39:14;;;;;;;71.70;31.63;;;;;;;-1.34;100.00;101725.69;5107783;56;1143283;-68
2022/12/03 10:44:24;;;;;;;134.90;57.63;;;;;;;-1.29;100.00;101716.99;5048833;56;1143442;-65
2022/12/03 10:49:30;;;;;;;78.13;36.43;;;;;;;-1.25;100.00;101705.72;5127363;56;1145075;-66
2022/12/03 10:54:36;;;;;;;75.43;32.90;;;;;;;-1.22;100.00;101704.83;4991105;56;1142972;-66
2022/12/03 10:59:43;;;;;;;75.97;34.17;;;;;;;-1.22;100.00;101703.53;5051913;56;1143229;-65
2022/12/03 11:04:49;;;;;;;67.08;31.57;;;;;;;-1.20;100.00;101699.16;5049224;56;1143035;-65
2022/12/03 11:09:57;;;;;;;78.20;34.90;;;;;;;-1.18;100.00;101694.81;4952858;57;1152576;-65
2022/12/03 11:15:05;;;;;;;97.07;52.80;;;;;;;-1.17;100.00;101694.80;4949167;56;1143021;-67
2022/12/03 11:20:21;;;;;;;86.57;44.60;;;;;;;-1.20;100.00;101690.93;4968380;57;1143007;-66
2022/12/03 11:25:35;;;;;;;98.35;47.70;;;;;;;-1.20;100.00;101688.34;4945064;56;1143304;-67
2022/12/03 11:30:55;;;;;;;80.43;33.90;;;;;;;-1.17;100.00;101690.91;4828231;58;1143194;-69
2022/12/03 11:36:08;;;;;;;96.33;39.03;;;;;;;-1.19;100.00;101685.30;5038041;57;1143029;-64
2022/12/03 11:41:21;;;;;;;79.67;39.50;;;;;;;-1.20;100.00;101684.87;4988475;56;1143142;-67
2022/12/03 11:46:29;;;;;;;;;;;;;;;-1.18;100.00;101677.50;4924090;56;1143225;-67
2022/12/03 11:51:34;;;;;;;78.23;31.70;;;;;;;-1.15;100.00;101662.34;5023451;56;986437;-66
2022/12/03 11:56:54;;;;;;;76.00;32.40;;;;;;;-1.15;100.00;101667.09;5075774;56;1140941;-65
2022/12/03 12:01:54;;;;;;;458.90;223.93;;;;;;;-1.13;100.00;101668.38;5098257;55;1142961;-64
2022/12/03 12:07:01;;;;;;;298.25;158.20;;;;;;;-1.11;100.00;101670.08;5058248;55;1147261;-69
2022/12/03 12:12:22;;;;;;;87.07;37.97;;;;;;;-1.07;100.00;101663.13;5124171;56;1147250;-70
2022/12/03 12:17:36;;;;;;;83.07;37.37;;;;;;;-1.03;100.00;101668.69;5102451;56;1143198;-68
2022/12/03 12:22:42;;;;;;;85.50;36.23;;;;;;;-0.95;100.00;101666.02;5117679;56;1143055;-65
2022/12/03 12:27:49;;;;;;;92.00;39.37;;;;;;;-0.97;100.00;101668.63;5125304;56;1142924;-69
2022/12/03 12:33:21;;;;;;;77.72;35.55;;;;;;;-0.93;100.00;101664.27;5085440;56;1142928;-67
2022/12/03 12:38:29;;;;;;;87.80;36.70;;;;;;;-0.93;100.00;101656.47;5098849;56;1143325;-68
2022/12/03 12:43:38;;;;;;;89.55;39.27;;;;;;;-0.97;100.00;101661.27;5106249;56;1143144;-65
2022/12/03 12:48:43;;;;;;;113.70;50.60;;;;;;;-0.96;100.00;101651.31;5054476;56;1143108;-67
2022/12/03 12:53:52;;;;;;;110.53;46.63;;;;;;;-0.92;100.00;101646.51;5021413;56;1145330;-69
2022/12/03 12:59:20;;;;;;;94.03;39.98;;;;;;;-0.90;100.00;101649.91;4988774;56;1145310;-68
2022/12/03 13:04:27;;;;;;;78.55;33.30;;;;;;;-0.91;100.00;101654.25;4996937;57;1143095;-67
2022/12/03 13:09:33;;;;;;;67.40;26.62;;;;;;;-0.95;100.00;101644.80;4933926;57;1143010;-65
2022/12/03 13:14:39;;;;;;;90.07;37.83;;;;;;;-1.01;100.00;101640.97;4996115;57;1143089;-68
2022/12/03 13:19:45;;;;;;;91.37;41.10;;;;;;;-1.07;100.00;101634.10;4851741;57;1143248;-68
2022/12/03 13:24:54;;;;;;;104.97;43.40;;;;;;;-1.08;100.00;101626.36;4961226;58;1143120;-65
2022/12/03 13:30:11;;;;;;;73.25;30.90;;;;;;;-1.07;100.00;101628.08;4854753;58;1145345;-68
2022/12/03 13:35:34;;;;;;;84.45;34.15;;;;;;;-1.07;100.00;101626.78;5022082;55;1143079;-69
2022/12/03 13:40:38;;;;;;;102.70;41.45;;;;;;;-1.10;100.00;101625.08;5127311;56;1143160;-69
2022/12/03 13:45:47;;;;;;;107.47;49.90;;;;;;;-1.09;100.00;101633.73;5125100;55;1145125;-65
2022/12/03 13:50:54;;;;;;;98.70;38.60;;;;;;;-1.04;100.00;101631.05;5023434;57;1145168;-68
2022/12/03 13:56:29;;;;;;;97.10;41.90;;;;;;;-0.98;100.00;101643.97;5020486;57;1143054;-68
2022/12/03 14:01:35;;;;;;;102.12;40.05;;;;;;;-1.00;100.00;101629.70;5002788;56;1143194;-67
2022/12/03 14:06:41;;;;;;;97.77;41.17;;;;;;;-1.04;100.00;101628.45;5049798;57;1145311;-68
2022/12/03 14:17:10;;;;;;;85.25;37.23;;;;;;;-1.11;100.00;101620.77;4950633;56;1143136;-66
2022/12/03 14:22:18;;;;;;;99.03;42.20;;;;;;;-1.11;100.00;101631.58;4964492;56;1143027;-68
2022/12/03 14:27:24;;;;;;;113.27;45.57;;;;;;;-1.09;100.00;101633.29;4937789;57;1142981;-65
2022/12/03 14:32:29;;;;;;;114.20;47.43;;;;;;;-1.07;100.00;101627.61;4995480;56;1145139;-66
2022/12/03 14:37:35;;;;;;;107.73;45.17;;;;;;;-1.06;100.00;101624.14;5026925;57;1145078;-66
2022/12/03 14:42:41;;;;;;;121.63;47.90;;;;;;;-1.06;100.00;101625.44;4999022;57;1145235;-69
2022/12/03 14:47:46;;;;;;;100.63;39.23;;;;;;;-1.06;100.00;101621.55;5023208;56;1145099;-69
2022/12/03 14:52:52;;;;;;;104.10;44.07;;;;;;;-1.06;100.00;101626.73;5023313;57;1145100;-67
2022/12/03 14:57:58;;;;;;;110.67;42.37;;;;;;;-1.09;100.00;101621.61;4966628;56;1145066;-68
2022/12/03 15:03:03;;;;;;;101.20;45.00;;;;;;;-1.08;100.00;101610.34;4996652;56;1145256;-68
2022/12/03 15:08:09;;;;;;;131.35;63.65;;;;;;;-1.07;100.00;101617.23;5050989;56;1145238;-65
2022/12/03 15:13:15;;;;;;;110.13;44.20;;;;;;;-1.09;100.00;101616.41;5011150;56;1145081;-65
2022/12/03 15:18:20;;;;;;;102.27;41.17;;;;;;;-1.09;100.00;101617.72;4934482;57;1145054;-68
2022/12/03 15:23:26;;;;;;;92.75;33.85;;;;;;;-1.09;100.00;101624.20;4935452;57;1145094;-64
2022/12/03 15:28:32;;;;;;;96.67;40.00;;;;;;;-1.09;100.00;101629.40;4992056;57;1143080;-65
2022/12/03 15:33:38;;;;;;;108.23;44.50;;;;;;;-1.10;100.00;101632.00;5007202;57;1143086;-68
2022/12/03 15:38:43;;;;;;;111.37;46.93;;;;;;;-1.08;100.00;101625.92;5030768;56;1145114;-67
2022/12/03 15:43:52;;;;;;;108.57;44.67;;;;;;;-1.04;100.00;101618.08;5100145;56;1145335;-69
2022/12/03 15:48:58;;;;;;;107.33;45.97;;;;;;;-1.01;100.00;101619.34;5067313;56;1145153;-64
2022/12/03 15:54:05;;;;;;;101.95;41.92;;;;;;;-1.03;100.00;101623.25;5092288;56;1145178;-68
2022/12/03 15:59:11;;;;;;;101.70;42.60;;;;;;;-1.03;100.00;101631.47;5058433;56;1145557;-68
2022/12/03 16:04:17;;;;;;;124.70;48.10;;;;;;;-1.03;100.00;101624.98;5025704;56;1145193;-67
2022/12/03 16:09:24;;;;;;;111.40;49.77;;;;;;;-1.01;100.00;101621.94;5064462;56;1145229;-67
2022/12/03 16:14:29;;;;;;;170.05;73.60;;;;;;;-0.99;100.00;101618.88;5089793;56;1145158;-68
2022/12/03 16:19:35;;;;;;;117.97;53.30;;;;;;;-0.98;100.00;101618.87;5081218;56;1145283;-67
2022/12/03 16:24:41;;;;;;;172.73;78.80;;;;;;;-0.97;100.00;101617.13;4926308;57;1145149;-68
2022/12/03 16:29:46;;;;;;;152.30;64.90;;;;;;;-1.00;100.00;101618.47;4935196;56;1145145;-68
2022/12/03 16:34:52;;;;;;;106.85;48.58;;;;;;;-1.02;100.00;101616.32;5043334;56;1145333;-68
2022/12/03 16:39:57;;;;;;;121.93;50.40;;;;;;;-1.01;100.00;101612.84;5034700;56;1145088;-67
2022/12/03 16:50:10;;;;;;;143.28;51.95;;;;;;;-0.98;100.00;101614.11;5108585;56;1145150;-65
2022/12/03 16:55:16;;;;;;;160.97;55.70;;;;;;;-1.00;100.00;101628.84;5084540;56;1145447;-66
2022/12/03 17:00:22;;;;;;;266.47;80.13;;;;;;;-1.00;100.00;101616.73;5087180;56;1145061;-68
2022/12/03 17:05:28;;;;;;;379.98;103.05;;;;;;;-0.97;100.00;101624.92;5032568;56;1145302;-68
2022/12/03 17:10:33;;;;;;;140.70;56.77;;;;;;;-0.95;100.00;101617.54;5028160;57;1147259;-66
2022/12/03 17:15:40;;;;;;;194.33;68.60;;;;;;;-0.94;100.00;101621.86;5008790;57;1145196;-67
2022/12/03 17:20:46;;;;;;;159.07;61.87;;;;;;;-0.93;100.00;101622.72;5053560;56;1145018;-69
2022/12/03 17:25:52;;;;;;;235.50;78.97;;;;;;;-0.94;100.00;101621.86;5063759;56;1145251;-69
2022/12/03 17:30:58;;;;;;;151.22;57.03;;;;;;;-0.92;100.00;101617.50;5040947;56;1145338;-68
2022/12/03 17:36:04;;;;;;;135.00;53.40;;;;;;;-0.91;100.00;101614.00;5058269;55;1145392;-68
2022/12/03 17:41:10;;;;;;;145.80;59.90;;;;;;;-0.87;100.00;101609.63;5063083;56;1145136;-69
2022/12/03 17:46:15;;;;;;;133.37;57.23;;;;;;;-0.89;100.00;101607.48;5037759;56;1145121;-68
2022/12/03 17:51:23;;;;;;;129.03;54.90;;;;;;;-0.87;100.00;101614.39;5035955;56;1145197;-70
2022/12/03 17:56:28;;;;;;;133.67;62.27;;;;;;;-0.98;100.00;101598.53;5040209;56;1145375;-68
2022/12/03 18:01:34;;;;;;;132.20;58.37;;;;;;;-0.87;100.00;101618.72;5064632;56;1145152;-65
2022/12/03 18:06:40;;;;;;;148.87;64.90;;;;;;;-0.84;100.00;101618.69;5038231;56;1145267;-66
2022/12/03 18:11:46;;;;;;;157.33;64.57;;;;;;;-0.84;100.00;101616.95;5058334;56;1145132;-69
2022/12/03 18:16:52;;;;;;;172.15;69.30;;;;;;;-0.82;100.00;101607.84;5077860;56;1145100;-70
2022/12/03 18:21:58;;;;;;;165.73;64.13;;;;;;;-0.84;100.00;101610.45;5057986;56;1186555;-68
2022/12/03 18:27:04;;;;;;;193.70;68.73;;;;;;;-0.81;100.00;101606.53;5069543;56;1145001;-69
2022/12/03 18:32:11;;;;;;;178.32;63.60;;;;;;;-0.81;100.00;101605.23;5083904;56;1145188;-69
2022/12/03 18:37:16;;;;;;;170.73;58.20;;;;;;;-0.81;100.00;101603.93;5064533;56;1145202;-70
2022/12/03 18:42:23;;;;;;;153.87;59.60;;;;;;;-0.81;100.00;101606.53;5064228;56;1145228;-67
2022/12/03 18:47:30;;;;;;;152.23;52.07;;;;;;;-0.81;100.00;101600.03;5074654;56;1145192;-70
2022/12/03 18:52:35;;;;;;;137.37;54.90;;;;;;;-0.80;100.00;101589.20;5066474;56;1145007;-67
2022/12/03 18:57:41;;;;;;;124.83;45.20;;;;;;;-0.79;100.00;101598.28;5057719;56;1145086;-67
2022/12/03 19:02:47;;;;;;;369.70;151.73;;;;;;;-0.77;100.00;101585.28;5058797;56;1145157;-70
2022/12/03 19:07:55;;;;;;;1176.97;523.33;;;;;;;-0.75;100.00;101586.09;5051357;56;1147373;-66
2022/12/03 19:13:02;;;;;;;333.10;134.87;;;;;;;-0.71;100.00;101592.52;5063695;56;1149157;-68
2022/12/03 19:18:08;;;;;;;111.63;50.87;;;;;;;-0.65;100.00;101598.52;5033056;56;1147313;-68
2022/12/03 19:23:14;;;;;;;115.15;50.83;;;;;;;-0.63;100.00;101588.97;5050508;56;1145098;-66
2022/12/03 19:28:19;;;;;;;109.48;50.20;;;;;;;-0.66;100.00;101596.80;5084092;56;1145174;-67
2022/12/03 19:33:29;;;;;;;116.17;52.87;;;;;;;-0.62;100.00;101604.98;5086271;56;1145082;-69
2022/12/03 19:38:35;;;;;;;124.27;59.03;;;;;;;-0.62;100.00;101608.44;5057744;56;1145216;-69
2022/12/03 19:43:41;;;;;;;123.83;54.73;;;;;;;-0.56;100.00;101600.53;5005210;57;1145257;-65
2022/12/03 19:48:47;;;;;;;127.07;55.53;;;;;;;-0.57;100.00;101609.21;5006948;57;1145357;-70
2022/12/03 19:53:54;;;;;;;149.03;65.17;;;;;;;-0.56;100.00;101609.63;5026903;57;1145216;-68
2022/12/03 19:59:00;;;;;;;104.03;46.33;;;;;;;-0.52;100.00;101613.05;5099807;56;1145063;-67
2022/12/03 20:04:07;;;;;;;132.13;50.90;;;;;;;-0.51;100.00;101606.53;5011474;56;1145293;-65
2022/12/03 20:09:19;;;;;;;128.83;58.43;;;;;;;-0.54;100.00;101606.58;4988284;56;1145209;-70
2022/12/03 20:14:25;;;;;;;129.93;57.70;;;;;;;-0.52;100.00;101614.34;4926628;58;1145290;-68
2022/12/03 20:19:30;;;;;;;152.53;62.50;;;;;;;-0.51;100.00;101607.83;4957819;56;1145068;-69
2022/12/03 20:24:36;;;;;;;137.07;56.13;;;;;;;-0.50;100.00;101611.30;5021016;56;1145168;-67
2022/12/03 20:29:42;;;;;;;152.78;60.83;;;;;;;-0.50;100.00;101613.45;5016135;56;1145050;-67
2022/12/03 20:34:48;;;;;;;144.30;58.50;;;;;;;-0.50;100.00;101608.26;5018280;56;1145059;-67
2022/12/03 20:39:54;;;;;;;130.60;55.83;;;;;;;-0.48;100.00;101608.23;5001662;57;1145158;-68
2022/12/03 20:45:00;;;;;;;119.47;51.97;;;;;;;-0.45;100.00;101606.42;4990047;57;1145051;-69
2022/12/03 20:50:06;;;;;;;130.33;55.87;;;;;;;-0.44;100.00;101605.55;5007505;57;1145071;-70
2022/12/03 20:55:12;;;;;;;132.17;57.70;;;;;;;-0.43;100.00;101594.71;5027336;57;1145150;-68
2022/12/03 21:00:17;;;;;;;132.05;56.90;;;;;;;-0.40;100.00;101598.12;4918612;57;1145013;-68
2022/12/03 21:05:23;;;;;;;138.73;57.00;;;;;;;-0.39;100.00;101601.59;4905866;56;1145026;-69
2022/12/03 21:10:35;;;;;;;114.12;52.55;;;;;;;-0.39;100.00;101589.89;4986691;57;1145501;-69
2022/12/03 21:15:41;;;;;;;124.63;51.97;;;;;;;-0.36;100.00;101589.85;5052180;57;1145285;-70
2022/12/03 21:20:48;;;;;;;119.20;51.80;;;;;;;-0.35;100.00;101582.47;4961922;58;1145287;-68
2022/12/03 21:25:53;;;;;;;113.00;49.80;;;;;;;-0.39;100.00;101588.59;5027116;57;1145300;-70
2022/12/03 21:31:09;;;;;;;108.50;51.37;;;;;;;-0.37;100.00;101586.83;5063638;57;1145079;-70
2022/12/03 21:36:16;;;;;;;173.02;65.10;;;;;;;-0.34;100.00;101585.49;5040265;57;1145038;-64
2022/12/03 21:41:21;;;;;;;199.60;64.97;;;;;;;-0.33;100.00;101582.45;5036925;56;1145186;-65
2022/12/03 21:46:27;;;;;;;153.13;56.43;;;;;;;-0.30;100.00;101581.08;5013783;57;1145273;-65
2022/12/03 21:51:34;;;;;;;135.10;50.43;;;;;;;-0.28;100.00;101574.12;5063466;57;1145383;-70
2022/12/03 21:56:41;;;;;;;138.00;55.90;;;;;;;-0.25;100.00;101572.34;5032687;57;1145106;-69
2022/12/03 22:01:47;;;;;;;125.57;44.67;;;;;;;-0.27;100.00;101571.50;4997626;57;1145315;-69
2022/12/03 22:06:52;;;;;;;130.65;51.77;;;;;;;-0.26;100.00;101567.16;5063971;57;1144965;-67
2022/12/03 22:11:59;;;;;;;118.00;46.17;;;;;;;-0.27;100.00;101571.50;5043693;57;1145306;-69
2022/12/03 22:17:06;;;;;;;121.87;47.90;;;;;;;-0.26;100.00;101568.45;4966677;57;1145268;-68
2022/12/03 22:22:11;;;;;;;97.40;37.50;;;;;;;-0.29;100.00;101560.27;4984009;57;1145165;-70
2022/12/03 22:27:17;;;;;;;118.10;48.80;;;;;;;-0.27;100.00;101549.84;5027336;57;1143059;-67
2022/12/03 22:37:25;;;;;;;140.93;53.67;;;;;;;-0.21;100.00;101553.22;5301059;53;47342;-63
2022/12/03 22:42:32;;;;;;;138.83;50.73;;;;;;;-0.22;100.00;101553.23;4972669;56;1141039;-66
2022/12/03 22:47:38;;;;;;;110.43;41.07;;;;;;;-0.19;100.00;101546.25;5107587;55;1145261;-65
2022/12/03 22:52:44;;;;;;;119.80;46.40;;;;;;;-0.17;100.00;101548.83;5124386;54;1145233;-67